createdAt,value
2022-07-30T00:00:13.133Z,2.85
2022-07-30T00:02:51.629Z,2.70
2022-07-30T00:05:18.507Z,3.00
2022-07-30T00:07:45.282Z,2.78
2022-07-30T00:10:12.064Z,2.92
2022-07-30T00:12:39.516Z,2.63
2022-07-30T00:15:06.946Z,3.20
2022-07-30T00:17:33.713Z,3.13
2022-07-30T00:20:00.581Z,3.33
2022-07-30T00:22:30.937Z,3.03
2022-07-30T00:24:57.780Z,3.00
2022-07-30T00:27:24.637Z,3.10
2022-07-30T00:29:51.443Z,3.00
2022-07-30T00:32:18.242Z,2.78
2022-07-30T00:34:45.057Z,3.50
2022-07-30T00:37:11.818Z,3.70
2022-07-30T00:39:38.589Z,2.95
2022-07-30T00:42:05.476Z,2.97
2022-07-30T00:44:32.321Z,3.20
2022-07-30T00:46:59.583Z,3.05
2022-07-30T00:49:26.972Z,3.05
2022-07-30T00:51:53.986Z,2.95
2022-07-30T00:54:21.943Z,3.30
2022-07-30T00:56:49.075Z,2.90
2022-07-30T00:59:16.321Z,3.20
2022-07-30T01:01:43.352Z,2.88
2022-07-30T01:04:11.892Z,3.20
2022-07-30T01:06:39.932Z,3.45
2022-07-30T01:09:07.798Z,3.33
2022-07-30T01:11:38.258Z,3.58
2022-07-30T01:14:09.382Z,3.03
2022-07-30T01:16:38.036Z,3.40
2022-07-30T01:19:30.151Z,3.28
2022-07-30T01:22:24.697Z,3.38
2022-07-30T01:25:04.374Z,3.15
2022-07-30T01:27:44.271Z,3.72
2022-07-30T01:30:13.022Z,3.00
2022-07-30T01:32:44.183Z,3.67
2022-07-30T01:35:13.036Z,3.25
2022-07-30T01:37:40.961Z,3.20
2022-07-30T01:40:08.949Z,3.45
2022-07-30T01:42:38.375Z,3.10
2022-07-30T01:45:07.293Z,3.42
2022-07-30T01:47:35.650Z,3.10
2022-07-30T01:50:04.689Z,3.60
2022-07-30T01:52:33.907Z,3.28
2022-07-30T01:55:02.216Z,3.40
2022-07-30T01:57:30.871Z,3.17
2022-07-30T02:00:01.857Z,3.35
2022-07-30T02:02:28.708Z,3.47
2022-07-30T02:04:55.588Z,3.20
2022-07-30T02:07:35.259Z,3.88
2022-07-30T02:10:07.744Z,3.28
2022-07-30T02:12:39.378Z,3.05
2022-07-30T02:15:23.847Z,2.75
2022-07-30T02:18:00.329Z,3.30
2022-07-30T02:20:30.287Z,3.20
2022-07-30T02:23:02.637Z,3.85
2022-07-30T02:25:32.337Z,3.00
2022-07-30T02:28:05.901Z,2.95
2022-07-30T02:30:36.195Z,2.80
2022-07-30T02:33:08.295Z,3.85
2022-07-30T02:35:36.960Z,3.17
2022-07-30T02:38:05.590Z,3.17
2022-07-30T02:40:32.960Z,2.90
2022-07-30T02:43:00.779Z,3.28
2022-07-30T02:45:29.288Z,3.17
2022-07-30T02:48:01.479Z,3.45
2022-07-30T02:50:29.147Z,3.15
2022-07-30T02:52:59.352Z,3.13
2022-07-30T02:55:28.388Z,2.92
2022-07-30T02:57:56.447Z,3.28
2022-07-30T03:00:24.898Z,2.90
2022-07-30T03:02:56.747Z,3.15
2022-07-30T03:05:25.737Z,3.15
2022-07-30T03:07:55.172Z,3.40
2022-07-30T03:10:22.716Z,3.20
2022-07-30T03:12:51.466Z,3.08
2022-07-30T03:15:18.385Z,3.45
2022-07-30T03:17:48.924Z,3.28
2022-07-30T03:20:19.073Z,3.03
2022-07-30T03:22:51.421Z,3.80
2022-07-30T03:25:23.078Z,3.35
2022-07-30T03:27:51.381Z,3.20
2022-07-30T03:30:18.963Z,2.90
2022-07-30T03:32:46.735Z,3.08
2022-07-30T03:35:17.154Z,3.10
2022-07-30T03:37:48.532Z,2.85
2022-07-30T03:40:15.856Z,3.10
2022-07-30T03:42:43.216Z,3.20
2022-07-30T03:45:10.921Z,2.95
2022-07-30T03:47:39.478Z,3.00
2022-07-30T03:50:06.852Z,3.55
2022-07-30T03:52:41.321Z,3.28
2022-07-30T03:55:10.154Z,3.35
2022-07-30T03:57:37.136Z,3.00
2022-07-30T04:00:13.012Z,3.28
2022-07-30T04:02:47.195Z,2.70
2022-07-30T04:05:15.259Z,2.65
2022-07-30T04:07:45.271Z,2.70
2022-07-30T04:10:13.800Z,2.70
2022-07-30T04:12:40.785Z,2.90
2022-07-30T04:16:05.635Z,2.97
2022-07-30T04:18:01.373Z,2.67
2022-07-30T04:20:34.593Z,3.15
2022-07-30T04:23:02.719Z,2.80
2022-07-30T04:25:30.489Z,2.63
2022-07-30T04:27:58.459Z,3.15
2022-07-30T04:30:31.478Z,2.92
2022-07-30T04:32:58.324Z,2.40
2022-07-30T04:35:51.697Z,2.50
2022-07-30T04:38:20.000Z,2.47
2022-07-30T04:40:47.400Z,2.38
2022-07-30T04:43:15.006Z,2.40
2022-07-30T04:45:43.644Z,2.30
2022-07-30T04:48:10.505Z,2.35
2022-07-30T04:50:43.211Z,2.30
2022-07-30T04:53:11.254Z,2.42
2022-07-30T04:55:43.051Z,2.75
2022-07-30T04:58:12.173Z,2.47
2022-07-30T05:00:41.365Z,2.47
2022-07-30T05:03:12.519Z,2.75
2022-07-30T05:05:40.907Z,2.72
2022-07-30T05:08:07.957Z,2.63
2022-07-30T05:10:34.862Z,2.63
2022-07-30T05:13:01.636Z,2.97
2022-07-30T05:15:36.308Z,3.65
2022-07-30T05:18:05.788Z,2.50
2022-07-30T05:20:32.598Z,3.47
2022-07-30T05:22:59.671Z,3.25
2022-07-30T05:25:26.503Z,2.60
2022-07-30T05:27:53.908Z,2.85
2022-07-30T05:30:26.148Z,2.40
2022-07-30T05:32:54.905Z,2.33
2022-07-30T05:35:23.381Z,2.10
2022-07-30T05:37:50.188Z,2.20
2022-07-30T05:40:17.192Z,2.40
2022-07-30T05:42:43.981Z,2.28
2022-07-30T05:45:11.128Z,2.10
2022-07-30T05:47:37.893Z,3.00
2022-07-30T05:50:05.551Z,2.38
2022-07-30T05:52:33.728Z,1.95
2022-07-30T05:55:00.626Z,1.70
2022-07-30T05:57:27.514Z,2.00
2022-07-30T05:59:54.338Z,1.50
2022-07-30T06:02:24.250Z,1.60
2022-07-30T06:04:51.692Z,1.60
2022-07-30T06:07:18.555Z,1.80
2022-07-30T06:09:45.412Z,1.45
2022-07-30T06:12:12.234Z,2.25
2022-07-30T06:14:38.993Z,1.70
2022-07-30T06:17:05.910Z,2.67
2022-07-30T06:19:32.859Z,1.90
2022-07-30T06:22:01.778Z,2.00
2022-07-30T06:24:34.205Z,2.30
2022-07-30T06:27:01.275Z,1.80
2022-07-30T06:29:28.255Z,1.60
2022-07-30T06:31:55.160Z,1.80
2022-07-30T06:34:22.023Z,1.50
2022-07-30T06:36:49.667Z,1.80
2022-07-30T06:39:55.956Z,2.03
2022-07-30T06:42:04.282Z,1.77
2022-07-30T06:44:31.169Z,1.50
2022-07-30T06:46:58.320Z,1.65
2022-07-30T06:49:25.833Z,1.52
2022-07-30T06:51:52.762Z,1.73
2022-07-30T06:54:20.206Z,1.42
2022-07-30T06:56:47.012Z,1.50
2022-07-30T06:59:13.943Z,1.60
2022-07-30T07:01:41.081Z,1.50
2022-07-30T07:04:08.103Z,1.50
2022-07-30T07:06:34.950Z,1.58
2022-07-30T07:09:01.905Z,1.52
2022-07-30T07:11:28.723Z,1.80
2022-07-30T07:13:55.542Z,1.63
2022-07-30T07:16:25.337Z,2.30
2022-07-30T07:18:53.994Z,1.60
2022-07-30T07:21:20.892Z,1.73
2022-07-30T07:23:50.805Z,1.55
2022-07-30T07:26:17.860Z,1.40
2022-07-30T07:28:44.711Z,1.80
2022-07-30T07:31:11.718Z,1.63
2022-07-30T07:33:58.535Z,1.38
2022-07-30T07:36:25.325Z,1.58
2022-07-30T07:38:52.194Z,1.70
2022-07-30T07:41:19.042Z,1.30
2022-07-30T07:43:45.822Z,1.45
2022-07-30T07:46:16.514Z,1.50
2022-07-30T07:48:59.975Z,1.35
2022-07-30T07:51:47.253Z,1.60
2022-07-30T07:54:21.572Z,1.70
2022-07-30T07:56:51.602Z,1.95
2022-07-30T07:59:19.972Z,1.92
2022-07-30T08:01:47.329Z,1.48
2022-07-30T08:04:17.210Z,1.52
2022-07-30T08:06:44.109Z,1.40
2022-07-30T08:09:10.921Z,1.35
2022-07-30T08:11:37.735Z,1.85
2022-07-30T08:14:04.561Z,1.33
2022-07-30T08:16:31.442Z,1.80
2022-07-30T08:18:58.300Z,1.77
2022-07-30T08:21:25.092Z,1.73
2022-07-30T08:23:51.934Z,1.67
2022-07-30T08:26:18.735Z,1.50
2022-07-30T08:28:45.838Z,1.55
2022-07-30T08:31:13.043Z,1.60
2022-07-30T08:33:40.003Z,1.65
2022-07-30T08:36:09.469Z,1.50
2022-07-30T08:38:37.392Z,1.60
2022-07-30T08:41:04.244Z,1.50
2022-07-30T08:43:31.660Z,1.42
2022-07-30T08:46:00.520Z,1.27
2022-07-30T08:48:28.488Z,1.60
2022-07-30T08:50:55.647Z,1.60
2022-07-30T08:53:23.635Z,1.95
2022-07-30T08:55:50.662Z,1.42
2022-07-30T08:58:30.776Z,1.75
2022-07-30T09:00:58.205Z,1.52
2022-07-30T09:03:25.091Z,1.48
2022-07-30T09:05:52.014Z,1.20
2022-07-30T09:08:19.894Z,1.48
2022-07-30T09:10:53.220Z,2.13
2022-07-30T09:13:25.901Z,1.75
2022-07-30T09:15:53.145Z,1.65
2022-07-30T09:18:34.923Z,1.90
2022-07-30T09:21:23.422Z,1.70
2022-07-30T09:24:06.379Z,1.63
2022-07-30T09:26:59.308Z,1.42
2022-07-30T09:29:29.817Z,1.40
2022-07-30T09:32:02.949Z,1.90
2022-07-30T09:34:37.695Z,1.60
2022-07-30T09:37:10.867Z,1.38
2022-07-30T09:39:41.556Z,1.48
2022-07-30T09:42:26.073Z,1.60
2022-07-30T09:45:05.079Z,1.83
2022-07-30T09:47:33.938Z,1.83
2022-07-30T09:50:09.576Z,1.92
2022-07-30T09:52:43.999Z,2.17
2022-07-30T09:55:33.669Z,2.20
2022-07-30T09:58:05.724Z,1.95
2022-07-30T10:00:37.252Z,2.25
2022-07-30T10:03:21.846Z,1.90
2022-07-30T10:06:03.184Z,1.85
2022-07-30T10:08:40.848Z,1.48
2022-07-30T10:11:11.915Z,1.70
2022-07-30T10:13:43.902Z,1.85
2022-07-30T10:16:13.246Z,1.92
2022-07-30T10:18:42.597Z,1.92
2022-07-30T10:21:12.889Z,1.50
2022-07-30T10:23:45.075Z,1.50
2022-07-30T10:26:13.192Z,2.00
2022-07-30T10:28:44.772Z,1.70
2022-07-30T10:31:48.915Z,2.53
2022-07-30T10:33:59.494Z,1.65
2022-07-30T10:36:28.030Z,1.92
2022-07-30T10:38:55.674Z,2.33
2022-07-30T10:42:02.288Z,2.20
2022-07-30T10:45:18.021Z,1.80
2022-07-30T10:47:48.765Z,1.95
2022-07-30T10:50:26.550Z,2.38
2022-07-30T10:52:55.968Z,1.77
2022-07-30T10:55:36.695Z,1.70
2022-07-30T10:58:07.259Z,1.90
2022-07-30T11:00:54.535Z,1.80
2022-07-30T11:03:41.126Z,1.70
2022-07-30T11:06:24.285Z,1.80
2022-07-30T11:08:52.180Z,1.45
2022-07-30T11:11:59.118Z,1.67
2022-07-30T11:14:12.923Z,1.88
2022-07-30T11:16:39.841Z,1.70
2022-07-30T11:19:56.466Z,1.83
2022-07-30T11:22:24.642Z,1.88
2022-07-30T11:24:52.396Z,1.90
2022-07-30T11:27:41.452Z,2.50
2022-07-30T11:30:18.088Z,2.30
2022-07-30T11:32:56.519Z,1.80
2022-07-30T11:35:25.242Z,2.10
2022-07-30T11:38:22.485Z,1.67
2022-07-30T11:40:49.340Z,1.98
2022-07-30T11:43:34.841Z,1.80
2022-07-30T11:46:16.282Z,1.85
2022-07-30T11:48:59.090Z,1.70
2022-07-30T11:51:26.606Z,1.90
2022-07-30T11:54:05.532Z,2.00
2022-07-30T11:56:34.249Z,2.40
2022-07-30T11:59:05.955Z,1.90
2022-07-30T12:01:36.310Z,2.00
2022-07-30T12:04:04.992Z,2.25
2022-07-30T12:06:32.353Z,1.75
2022-07-30T12:08:59.771Z,2.05
2022-07-30T12:11:33.168Z,1.90
2022-07-30T12:14:02.056Z,2.08
2022-07-30T12:16:30.913Z,1.75
2022-07-30T12:19:05.516Z,2.00
2022-07-30T12:21:33.096Z,2.17
2022-07-30T12:24:02.701Z,1.90
2022-07-30T12:26:31.297Z,1.95
2022-07-30T12:29:01.827Z,2.15
2022-07-30T12:31:29.286Z,2.10
2022-07-30T12:34:00.455Z,2.15
2022-07-30T12:36:32.673Z,1.77
2022-07-30T12:39:00.837Z,1.98
2022-07-30T12:41:56.971Z,1.88
2022-07-30T12:44:40.157Z,1.77
2022-07-30T12:47:23.784Z,1.98
2022-07-30T12:49:53.402Z,1.85
2022-07-30T12:52:28.527Z,2.35
2022-07-30T12:55:01.974Z,1.80
2022-07-30T12:57:50.421Z,2.10
2022-07-30T13:00:17.485Z,2.30
2022-07-30T13:02:44.358Z,2.03
2022-07-30T13:05:12.139Z,1.77
2022-07-30T13:07:59.488Z,1.83
2022-07-30T13:10:31.103Z,1.90
2022-07-30T13:12:59.132Z,2.13
2022-07-30T13:15:26.463Z,2.28
2022-07-30T13:17:53.316Z,2.22
2022-07-30T13:20:20.978Z,2.10
2022-07-30T13:22:47.764Z,2.28
2022-07-30T13:25:14.587Z,1.98
2022-07-30T13:27:41.375Z,1.95
2022-07-30T13:30:08.966Z,2.22
2022-07-30T13:32:35.805Z,2.63
2022-07-30T13:35:03.122Z,1.98
2022-07-30T13:37:37.658Z,3.28
2022-07-30T13:40:06.941Z,2.30
2022-07-30T13:42:33.842Z,2.30
2022-07-30T13:45:01.051Z,2.05
2022-07-30T13:47:27.919Z,1.98
2022-07-30T13:49:54.857Z,2.03
2022-07-30T13:52:21.647Z,2.22
2022-07-30T13:54:50.762Z,2.50
2022-07-30T13:57:17.657Z,1.85
2022-07-30T13:59:44.488Z,2.00
2022-07-30T14:02:11.502Z,2.33
2022-07-30T14:04:38.310Z,1.83
2022-07-30T14:07:05.340Z,1.63
2022-07-30T14:09:33.088Z,2.20
2022-07-30T14:12:11.414Z,1.65
2022-07-30T14:14:38.449Z,2.13
2022-07-30T14:17:05.330Z,2.38
2022-07-30T14:19:32.446Z,2.30
2022-07-30T14:21:59.262Z,2.20
2022-07-30T14:24:26.057Z,2.20
2022-07-30T14:26:57.673Z,2.28
2022-07-30T14:29:26.140Z,2.25
2022-07-30T14:31:53.373Z,1.88
2022-07-30T14:34:20.153Z,2.50
2022-07-30T14:36:46.985Z,1.95
2022-07-30T14:39:13.876Z,2.22
2022-07-30T14:41:40.729Z,2.30
2022-07-30T14:44:12.126Z,2.17
2022-07-30T14:46:52.508Z,2.90
2022-07-30T14:49:20.317Z,1.95
2022-07-30T14:51:47.496Z,2.00
2022-07-30T14:54:14.497Z,2.10
2022-07-30T14:56:41.868Z,2.30
2022-07-30T14:59:08.839Z,2.00
2022-07-30T15:01:35.883Z,2.40
2022-07-30T15:04:02.871Z,2.15
2022-07-30T15:06:29.945Z,2.47
2022-07-30T15:08:56.898Z,2.00
2022-07-30T15:11:24.423Z,2.10
2022-07-30T15:13:52.620Z,1.83
2022-07-30T15:16:20.191Z,2.58
2022-07-30T15:18:47.116Z,1.92
2022-07-30T15:21:14.779Z,2.28
2022-07-30T15:23:41.930Z,2.08
2022-07-30T15:26:08.818Z,1.80
2022-07-30T15:28:35.624Z,2.28
2022-07-30T15:31:03.431Z,1.98
2022-07-30T15:33:30.538Z,2.30
2022-07-30T15:36:03.231Z,2.00
2022-07-30T15:38:29.995Z,2.33
2022-07-30T15:40:56.790Z,2.13
2022-07-30T15:43:23.584Z,2.47
2022-07-30T15:45:55.597Z,1.88
2022-07-30T15:48:27.766Z,2.22
2022-07-30T15:51:01.934Z,2.13
2022-07-30T15:53:30.300Z,2.80
2022-07-30T15:55:58.347Z,2.40
2022-07-30T15:58:25.360Z,1.95
2022-07-30T16:00:52.451Z,2.60
2022-07-30T16:03:19.560Z,2.05
2022-07-30T16:05:52.027Z,2.20
2022-07-30T16:08:20.666Z,2.35
2022-07-30T16:10:48.196Z,2.10
2022-07-30T16:13:15.236Z,2.08
2022-07-30T16:15:42.076Z,2.45
2022-07-30T16:18:08.931Z,2.33
2022-07-30T16:20:35.771Z,2.47
2022-07-30T16:23:02.635Z,2.17
2022-07-30T16:25:29.478Z,2.03
2022-07-30T16:27:57.682Z,2.00
2022-07-30T16:30:27.459Z,2.30
2022-07-30T16:32:56.429Z,2.35
2022-07-30T16:35:23.405Z,2.60
2022-07-30T16:37:50.242Z,2.67
2022-07-30T16:40:17.077Z,3.25
2022-07-30T16:42:43.885Z,2.42
2022-07-30T16:45:11.194Z,3.05
2022-07-30T16:47:38.090Z,2.03
2022-07-30T16:50:05.407Z,2.63
2022-07-30T16:52:32.255Z,2.10
2022-07-30T16:54:59.019Z,2.30
2022-07-30T16:57:25.764Z,2.63
2022-07-30T16:59:52.694Z,2.10
2022-07-30T17:02:19.477Z,2.08
2022-07-30T17:04:46.244Z,2.30
2022-07-30T17:07:13.502Z,2.67
2022-07-30T17:09:40.618Z,2.53
2022-07-30T17:12:12.209Z,2.17
2022-07-30T17:14:41.287Z,2.33
2022-07-30T17:17:13.720Z,2.33
2022-07-30T17:19:41.743Z,2.15
2022-07-30T17:22:08.631Z,2.90
2022-07-30T17:24:35.594Z,2.75
2022-07-30T17:27:02.693Z,2.20
2022-07-30T17:29:29.778Z,2.67
2022-07-30T17:31:56.640Z,2.60
2022-07-30T17:34:23.773Z,2.53
2022-07-30T17:36:52.045Z,2.97
2022-07-30T17:40:06.004Z,2.33
2022-07-30T17:42:09.925Z,2.50
2022-07-30T17:44:37.089Z,2.42
2022-07-30T17:47:03.945Z,2.30
2022-07-30T17:49:30.892Z,2.70
2022-07-30T17:51:57.691Z,2.30
2022-07-30T17:54:24.669Z,2.58
2022-07-30T17:56:51.714Z,2.70
2022-07-30T17:59:18.596Z,2.63
2022-07-30T18:01:45.922Z,2.70
2022-07-30T18:04:12.802Z,2.92
2022-07-30T18:06:39.662Z,2.58
2022-07-30T18:09:06.667Z,2.70
2022-07-30T18:11:33.681Z,2.50
2022-07-30T18:14:00.496Z,2.67
2022-07-30T18:16:27.442Z,2.90
2022-07-30T18:18:54.662Z,2.75
2022-07-30T18:21:21.495Z,2.72
2022-07-30T18:23:48.354Z,2.72
2022-07-30T18:26:15.641Z,2.80
2022-07-30T18:28:42.515Z,2.67
2022-07-30T18:31:09.407Z,2.67
2022-07-30T18:33:36.373Z,2.88
2022-07-30T18:36:03.371Z,2.88
2022-07-30T18:38:30.254Z,2.85
2022-07-30T18:40:59.799Z,3.35
2022-07-30T18:43:27.841Z,2.80
2022-07-30T18:45:55.025Z,2.88
2022-07-30T18:48:21.970Z,2.72
2022-07-30T18:50:48.929Z,3.17
2022-07-30T18:53:16.014Z,2.60
2022-07-30T18:55:43.696Z,2.80
2022-07-30T18:58:10.968Z,2.70
2022-07-30T19:00:39.619Z,3.25
2022-07-30T19:03:17.469Z,2.80
2022-07-30T19:05:45.811Z,2.80
2022-07-30T19:08:12.940Z,2.67
2022-07-30T19:10:40.120Z,3.17
2022-07-30T19:13:07.242Z,3.42
2022-07-30T19:15:34.263Z,2.80
2022-07-30T19:18:01.595Z,3.30
2022-07-30T19:20:28.485Z,2.92
2022-07-30T19:23:05.904Z,3.65
2022-07-30T19:25:34.211Z,2.72
2022-07-30T19:28:02.381Z,3.17
2022-07-30T19:30:30.115Z,3.10
2022-07-30T19:33:12.478Z,3.13
2022-07-30T19:35:41.898Z,3.50
2022-07-30T19:38:09.864Z,3.13
2022-07-30T19:40:39.577Z,3.42
2022-07-30T19:43:09.522Z,3.45
2022-07-30T19:45:46.791Z,3.60
2022-07-30T19:48:28.509Z,3.15
2022-07-30T19:50:55.941Z,4.35
2022-07-30T19:53:22.839Z,2.85
2022-07-30T19:55:50.938Z,3.10
2022-07-30T19:58:17.949Z,3.38
2022-07-30T20:00:49.712Z,3.83
2022-07-30T20:06:08.972Z,3.28
2022-07-30T20:08:44.600Z,3.08
2022-07-30T20:11:20.836Z,3.80
2022-07-30T20:13:48.273Z,3.08
2022-07-30T20:16:16.506Z,2.65
2022-07-30T20:18:46.033Z,3.63
2022-07-30T20:21:15.856Z,3.22
2022-07-30T20:23:44.965Z,3.20
2022-07-30T20:26:14.269Z,3.50
2022-07-30T20:28:43.858Z,3.38
2022-07-30T20:31:12.853Z,3.13
2022-07-30T20:33:40.094Z,3.15
2022-07-30T20:36:10.043Z,2.80
2022-07-30T20:38:39.053Z,3.40
2022-07-30T20:41:10.109Z,3.22
2022-07-30T20:43:51.611Z,3.40
2022-07-30T20:46:19.846Z,3.22
2022-07-30T20:48:46.845Z,3.60
2022-07-30T20:51:14.040Z,3.30
2022-07-30T20:53:45.368Z,3.30
2022-07-30T20:56:13.313Z,3.22
2022-07-30T20:58:40.778Z,4.03
2022-07-30T21:01:07.875Z,3.55
2022-07-30T21:03:35.905Z,3.35
2022-07-30T21:06:03.194Z,3.60
2022-07-30T21:08:31.760Z,3.50
2022-07-30T21:11:00.199Z,2.85
2022-07-30T21:13:27.534Z,3.67
2022-07-30T21:16:02.428Z,3.60
2022-07-30T21:18:30.579Z,3.38
2022-07-30T21:20:57.758Z,3.30
2022-07-30T21:23:25.127Z,3.10
2022-07-30T21:26:02.149Z,3.47
2022-07-30T21:28:35.514Z,3.50
2022-07-30T21:31:07.506Z,4.45
2022-07-30T21:33:36.434Z,3.80
2022-07-30T21:36:03.797Z,3.75
2022-07-30T21:38:31.954Z,3.70
2022-07-30T21:41:01.091Z,4.15
2022-07-30T21:43:30.596Z,3.83
2022-07-30T21:46:03.602Z,3.75
2022-07-30T21:48:30.703Z,3.60
2022-07-30T21:50:58.551Z,3.67
2022-07-30T21:53:29.684Z,4.07
2022-07-30T21:56:12.921Z,4.05
2022-07-30T21:58:40.131Z,3.97
2022-07-30T22:01:16.723Z,3.80
2022-07-30T22:04:04.413Z,4.45
2022-07-30T22:06:32.439Z,3.78
2022-07-30T22:09:00.068Z,3.55
2022-07-30T22:11:42.407Z,3.25
2022-07-30T22:14:10.427Z,3.97
2022-07-30T22:16:38.242Z,3.60
2022-07-30T22:21:41.717Z,3.53
2022-07-30T22:24:08.675Z,3.00
2022-07-30T22:26:35.516Z,2.92
2022-07-30T22:29:02.495Z,3.15
2022-07-30T22:31:39.277Z,3.65
2022-07-30T22:34:11.604Z,2.70
2022-07-30T22:36:45.580Z,2.92
2022-07-30T22:39:12.846Z,2.97
2022-07-30T22:41:39.625Z,3.28
2022-07-30T22:44:12.218Z,4.07
2022-07-30T22:46:39.909Z,3.50
2022-07-30T22:49:23.785Z,4.28
2022-07-30T22:52:05.147Z,3.08
2022-07-30T22:54:37.287Z,2.88
2022-07-30T22:57:04.329Z,2.70
2022-07-30T23:00:00.030Z,2.97
2022-07-30T23:02:18.049Z,2.70
2022-07-30T23:04:44.846Z,3.35
2022-07-30T23:07:13.997Z,2.45
2022-07-30T23:09:51.663Z,3.00
2022-07-30T23:12:17.269Z,4.50
2022-07-30T23:12:20.230Z,2.22
2022-07-30T23:14:47.922Z,2.85
2022-07-30T23:17:15.061Z,2.38
2022-07-30T23:19:41.825Z,2.83
2022-07-30T23:22:08.678Z,2.88
2022-07-30T23:24:35.727Z,2.67
2022-07-30T23:27:03.098Z,2.53
2022-07-30T23:29:30.105Z,3.05
2022-07-30T23:31:57.540Z,2.50
2022-07-30T23:34:24.318Z,2.42
2022-07-30T23:36:52.030Z,2.88
2022-07-30T23:39:19.636Z,2.65
2022-07-30T23:41:46.963Z,2.88
2022-07-30T23:44:13.741Z,2.60
2022-07-30T23:46:40.810Z,2.67
2022-07-30T23:49:07.709Z,2.50
2022-07-30T23:51:34.650Z,2.50
2022-07-30T23:54:02.017Z,2.53
2022-07-30T23:56:28.926Z,2.58
2022-07-30T23:58:56.307Z,2.58
